sensor_id;sensor_type;location;lat;lon;timestamp;temperature;humidity
8099;DHT22;4092;47.876;9.372;2023-05-07T00:02:17;13.10;99.90
8099;DHT22;4092;47.876;9.372;2023-05-07T00:04:44;13.10;99.90
8099;DHT22;4092;47.876;9.372;2023-05-07T00:07:13;13.10;99.90
8099;DHT22;4092;47.876;9.372;2023-05-07T00:09:40;13.10;99.90
8099;DHT22;4092;47.876;9.372;2023-05-07T00:12:07;13.10;99.90
8099;DHT22;4092;47.876;9.372;2023-05-07T00:14:34;13.10;99.90
8099;DHT22;4092;47.876;9.372;2023-05-07T00:17:01;13.10;99.90
8099;DHT22;4092;47.876;9.372;2023-05-07T00:19:28;13.00;99.90
8099;DHT22;4092;47.876;9.372;2023-05-07T00:21:55;13.00;99.90
8099;DHT22;4092;47.876;9.372;2023-05-07T00:24:24;13.00;99.90
8099;DHT22;4092;47.876;9.372;2023-05-07T00:26:51;13.00;99.90
8099;DHT22;4092;47.876;9.372;2023-05-07T00:29:18;13.00;99.90
8099;DHT22;4092;47.876;9.372;2023-05-07T00:31:45;13.00;99.90
8099;DHT22;4092;47.876;9.372;2023-05-07T00:34:12;13.00;99.90
8099;DHT22;4092;47.876;9.372;2023-05-07T00:36:39;12.80;99.90
8099;DHT22;4092;47.876;9.372;2023-05-07T00:39:06;12.90;99.90
8099;DHT22;4092;47.876;9.372;2023-05-07T00:41:35;12.90;99.90
8099;DHT22;4092;47.876;9.372;2023-05-07T00:44:02;12.90;99.90
8099;DHT22;4092;47.876;9.372;2023-05-07T00:46:30;12.90;99.90
8099;DHT22;4092;47.876;9.372;2023-05-07T00:48:58;12.90;99.90
8099;DHT22;4092;47.876;9.372;2023-05-07T00:51:26;12.90;99.90
8099;DHT22;4092;47.876;9.372;2023-05-07T00:53:54;12.90;99.90
8099;DHT22;4092;47.876;9.372;2023-05-07T00:56:21;12.90;99.90
8099;DHT22;4092;47.876;9.372;2023-05-07T00:58:50;12.90;99.90
8099;DHT22;4092;47.876;9.372;2023-05-07T01:01:17;12.80;99.90
8099;DHT22;4092;47.876;9.372;2023-05-07T01:03:44;12.80;99.90
8099;DHT22;4092;47.876;9.372;2023-05-07T01:06:12;12.70;99.90
8099;DHT22;4092;47.876;9.372;2023-05-07T01:08:42;12.70;99.90
8099;DHT22;4092;47.876;9.372;2023-05-07T01:11:10;12.70;99.90
8099;DHT22;4092;47.876;9.372;2023-05-07T01:13:38;12.60;99.90
8099;DHT22;4092;47.876;9.372;2023-05-07T01:16:08;12.60;99.90
8099;DHT22;4092;47.876;9.372;2023-05-07T01:18:36;12.60;99.90
8099;DHT22;4092;47.876;9.372;2023-05-07T01:21:04;12.50;99.90
8099;DHT22;4092;47.876;9.372;2023-05-07T01:23:34;12.40;99.90
8099;DHT22;4092;47.876;9.372;2023-05-07T01:26:01;12.40;99.90
8099;DHT22;4092;47.876;9.372;2023-05-07T01:28:28;12.40;99.90
8099;DHT22;4092;47.876;9.372;2023-05-07T01:31:00;12.40;99.90
8099;DHT22;4092;47.876;9.372;2023-05-07T01:33:30;12.40;99.90
8099;DHT22;4092;47.876;9.372;2023-05-07T01:35:59;12.40;99.90
8099;DHT22;4092;47.876;9.372;2023-05-07T01:38:28;12.40;99.90
8099;DHT22;4092;47.876;9.372;2023-05-07T01:40:58;12.40;99.90
8099;DHT22;4092;47.876;9.372;2023-05-07T01:43:25;12.30;99.90
8099;DHT22;4092;47.876;9.372;2023-05-07T01:45:52;12.30;99.90
8099;DHT22;4092;47.876;9.372;2023-05-07T01:48:20;12.30;99.90
8099;DHT22;4092;47.876;9.372;2023-05-07T01:50:48;12.30;99.90
8099;DHT22;4092;47.876;9.372;2023-05-07T01:53:15;12.40;99.90
8099;DHT22;4092;47.876;9.372;2023-05-07T01:55:42;12.40;99.90
8099;DHT22;4092;47.876;9.372;2023-05-07T01:58:10;12.40;99.90
8099;DHT22;4092;47.876;9.372;2023-05-07T02:00:38;12.40;99.90
8099;DHT22;4092;47.876;9.372;2023-05-07T02:03:05;12.30;99.90
8099;DHT22;4092;47.876;9.372;2023-05-07T02:05:32;12.30;99.90
8099;DHT22;4092;47.876;9.372;2023-05-07T02:07:59;12.30;99.90
8099;DHT22;4092;47.876;9.372;2023-05-07T02:10:26;12.30;99.90
8099;DHT22;4092;47.876;9.372;2023-05-07T02:12:53;12.20;99.90
8099;DHT22;4092;47.876;9.372;2023-05-07T02:15:21;12.20;99.90
8099;DHT22;4092;47.876;9.372;2023-05-07T02:18:02;12.10;99.90
8099;DHT22;4092;47.876;9.372;2023-05-07T02:20:29;12.10;99.90
8099;DHT22;4092;47.876;9.372;2023-05-07T02:22:56;12.00;99.90
8099;DHT22;4092;47.876;9.372;2023-05-07T02:25:23;12.10;99.90
8099;DHT22;4092;47.876;9.372;2023-05-07T02:27:50;12.00;99.90
8099;DHT22;4092;47.876;9.372;2023-05-07T02:30:17;11.90;99.90
8099;DHT22;4092;47.876;9.372;2023-05-07T02:32:48;11.80;99.90
8099;DHT22;4092;47.876;9.372;2023-05-07T02:35:15;11.80;99.90
8099;DHT22;4092;47.876;9.372;2023-05-07T02:37:42;11.80;99.90
8099;DHT22;4092;47.876;9.372;2023-05-07T02:40:10;11.80;99.90
8099;DHT22;4092;47.876;9.372;2023-05-07T02:42:37;11.60;99.90
8099;DHT22;4092;47.876;9.372;2023-05-07T02:45:05;11.50;99.90
8099;DHT22;4092;47.876;9.372;2023-05-07T02:47:33;11.40;99.90
8099;DHT22;4092;47.876;9.372;2023-05-07T02:50:01;11.40;99.90
8099;DHT22;4092;47.876;9.372;2023-05-07T02:52:28;11.30;99.90
8099;DHT22;4092;47.876;9.372;2023-05-07T02:54:55;11.30;99.90
8099;DHT22;4092;47.876;9.372;2023-05-07T02:57:22;11.30;99.90
8099;DHT22;4092;47.876;9.372;2023-05-07T02:59:49;11.40;99.90
8099;DHT22;4092;47.876;9.372;2023-05-07T03:02:16;11.40;99.90
8099;DHT22;4092;47.876;9.372;2023-05-07T03:04:43;11.40;99.90
8099;DHT22;4092;47.876;9.372;2023-05-07T03:07:11;11.40;99.90
8099;DHT22;4092;47.876;9.372;2023-05-07T03:09:38;11.40;99.90
8099;DHT22;4092;47.876;9.372;2023-05-07T03:12:05;11.30;99.90
8099;DHT22;4092;47.876;9.372;2023-05-07T03:14:32;11.30;99.90
8099;DHT22;4092;47.876;9.372;2023-05-07T03:16:59;11.20;99.90
8099;DHT22;4092;47.876;9.372;2023-05-07T03:19:28;11.20;99.90
8099;DHT22;4092;47.876;9.372;2023-05-07T03:21:56;11.20;99.90
8099;DHT22;4092;47.876;9.372;2023-05-07T03:24:24;11.10;99.90
8099;DHT22;4092;47.876;9.372;2023-05-07T03:26:51;11.10;99.90
8099;DHT22;4092;47.876;9.372;2023-05-07T03:29:18;11.00;99.90
8099;DHT22;4092;47.876;9.372;2023-05-07T03:31:45;11.10;99.90
8099;DHT22;4092;47.876;9.372;2023-05-07T03:34:12;11.10;99.90
8099;DHT22;4092;47.876;9.372;2023-05-07T03:36:39;11.00;99.90
8099;DHT22;4092;47.876;9.372;2023-05-07T03:39:06;10.90;99.90
8099;DHT22;4092;47.876;9.372;2023-05-07T03:41:35;10.90;99.90
8099;DHT22;4092;47.876;9.372;2023-05-07T03:44:02;10.90;99.90
8099;DHT22;4092;47.876;9.372;2023-05-07T03:46:29;10.80;99.90
8099;DHT22;4092;47.876;9.372;2023-05-07T03:48:56;10.80;99.90
8099;DHT22;4092;47.876;9.372;2023-05-07T03:51:23;10.80;99.90
8099;DHT22;4092;47.876;9.372;2023-05-07T03:53:51;10.70;99.90
8099;DHT22;4092;47.876;9.372;2023-05-07T03:56:18;10.70;99.90
8099;DHT22;4092;47.876;9.372;2023-05-07T03:58:47;10.70;99.90
8099;DHT22;4092;47.876;9.372;2023-05-07T04:01:14;10.80;99.90
8099;DHT22;4092;47.876;9.372;2023-05-07T04:03:41;10.80;99.90
8099;DHT22;4092;47.876;9.372;2023-05-07T04:06:08;10.80;99.90
8099;DHT22;4092;47.876;9.372;2023-05-07T04:08:36;10.90;99.90
8099;DHT22;4092;47.876;9.372;2023-05-07T04:11:03;10.90;99.90
8099;DHT22;4092;47.876;9.372;2023-05-07T04:13:30;10.90;99.90
8099;DHT22;4092;47.876;9.372;2023-05-07T04:16:00;10.90;99.90
8099;DHT22;4092;47.876;9.372;2023-05-07T04:18:27;11.00;99.90
8099;DHT22;4092;47.876;9.372;2023-05-07T04:20:55;10.90;99.90
8099;DHT22;4092;47.876;9.372;2023-05-07T04:23:22;10.90;99.90
8099;DHT22;4092;47.876;9.372;2023-05-07T04:25:49;10.90;99.90
8099;DHT22;4092;47.876;9.372;2023-05-07T04:28:16;10.90;99.90
8099;DHT22;4092;47.876;9.372;2023-05-07T04:30:43;10.80;99.90
8099;DHT22;4092;47.876;9.372;2023-05-07T04:33:12;10.90;99.90
8099;DHT22;4092;47.876;9.372;2023-05-07T04:35:40;10.90;99.90
8099;DHT22;4092;47.876;9.372;2023-05-07T04:38:07;10.90;99.90
8099;DHT22;4092;47.876;9.372;2023-05-07T04:40:35;10.80;99.90
8099;DHT22;4092;47.876;9.372;2023-05-07T04:43:02;10.80;99.90
8099;DHT22;4092;47.876;9.372;2023-05-07T04:45:30;10.80;99.90
8099;DHT22;4092;47.876;9.372;2023-05-07T04:47:57;10.90;99.90
8099;DHT22;4092;47.876;9.372;2023-05-07T04:50:25;11.00;99.90
8099;DHT22;4092;47.876;9.372;2023-05-07T04:52:52;11.10;99.90
8099;DHT22;4092;47.876;9.372;2023-05-07T04:55:19;11.10;99.90
8099;DHT22;4092;47.876;9.372;2023-05-07T04:57:46;11.10;99.90
8099;DHT22;4092;47.876;9.372;2023-05-07T05:00:14;11.20;99.90
8099;DHT22;4092;47.876;9.372;2023-05-07T05:02:42;11.30;99.90
8099;DHT22;4092;47.876;9.372;2023-05-07T05:05:09;11.30;99.90
8099;DHT22;4092;47.876;9.372;2023-05-07T05:07:38;11.40;99.90
8099;DHT22;4092;47.876;9.372;2023-05-07T05:10:06;11.50;99.90
8099;DHT22;4092;47.876;9.372;2023-05-07T05:12:33;11.60;99.90
8099;DHT22;4092;47.876;9.372;2023-05-07T05:15:04;11.70;99.90
8099;DHT22;4092;47.876;9.372;2023-05-07T05:17:31;11.90;99.90
8099;DHT22;4092;47.876;9.372;2023-05-07T05:19:59;12.00;99.90
8099;DHT22;4092;47.876;9.372;2023-05-07T05:22:26;12.10;99.90
8099;DHT22;4092;47.876;9.372;2023-05-07T05:24:56;12.20;99.90
8099;DHT22;4092;47.876;9.372;2023-05-07T05:27:44;12.30;99.90
8099;DHT22;4092;47.876;9.372;2023-05-07T05:30:18;12.40;99.90
8099;DHT22;4092;47.876;9.372;2023-05-07T05:32:47;12.50;99.90
8099;DHT22;4092;47.876;9.372;2023-05-07T05:35:14;12.60;99.90
8099;DHT22;4092;47.876;9.372;2023-05-07T05:37:41;12.70;99.90
8099;DHT22;4092;47.876;9.372;2023-05-07T05:40:11;12.80;99.90
8099;DHT22;4092;47.876;9.372;2023-05-07T05:42:38;12.70;99.90
8099;DHT22;4092;47.876;9.372;2023-05-07T05:45:06;12.80;99.90
8099;DHT22;4092;47.876;9.372;2023-05-07T05:47:33;12.80;99.90
8099;DHT22;4092;47.876;9.372;2023-05-07T05:50:01;12.90;99.90
8099;DHT22;4092;47.876;9.372;2023-05-07T05:52:28;12.90;99.90
8099;DHT22;4092;47.876;9.372;2023-05-07T05:54:55;13.00;99.90
8099;DHT22;4092;47.876;9.372;2023-05-07T05:57:23;13.00;99.90
8099;DHT22;4092;47.876;9.372;2023-05-07T05:59:50;13.10;99.90
8099;DHT22;4092;47.876;9.372;2023-05-07T06:02:20;13.20;99.90
8099;DHT22;4092;47.876;9.372;2023-05-07T06:04:47;13.30;99.90
8099;DHT22;4092;47.876;9.372;2023-05-07T06:07:14;13.30;99.90
8099;DHT22;4092;47.876;9.372;2023-05-07T06:09:41;13.40;99.90
8099;DHT22;4092;47.876;9.372;2023-05-07T06:12:08;13.50;99.90
8099;DHT22;4092;47.876;9.372;2023-05-07T06:14:36;13.60;99.90
8099;DHT22;4092;47.876;9.372;2023-05-07T06:17:04;13.60;99.90
8099;DHT22;4092;47.876;9.372;2023-05-07T06:19:31;13.70;99.90
8099;DHT22;4092;47.876;9.372;2023-05-07T06:21:58;13.80;99.90
8099;DHT22;4092;47.876;9.372;2023-05-07T06:24:27;13.90;99.90
8099;DHT22;4092;47.876;9.372;2023-05-07T06:26:54;14.00;99.90
8099;DHT22;4092;47.876;9.372;2023-05-07T06:29:21;14.10;99.90
8099;DHT22;4092;47.876;9.372;2023-05-07T06:31:49;14.30;99.90
8099;DHT22;4092;47.876;9.372;2023-05-07T06:34:16;14.40;99.90
8099;DHT22;4092;47.876;9.372;2023-05-07T06:36:43;14.50;99.90
8099;DHT22;4092;47.876;9.372;2023-05-07T06:39:10;14.50;99.90
8099;DHT22;4092;47.876;9.372;2023-05-07T06:41:37;14.60;99.90
8099;DHT22;4092;47.876;9.372;2023-05-07T06:44:04;14.70;99.90
8099;DHT22;4092;47.876;9.372;2023-05-07T06:46:31;14.80;99.90
8099;DHT22;4092;47.876;9.372;2023-05-07T06:49:01;14.90;99.90
8099;DHT22;4092;47.876;9.372;2023-05-07T06:51:28;15.00;99.90
8099;DHT22;4092;47.876;9.372;2023-05-07T06:53:55;15.10;99.90
8099;DHT22;4092;47.876;9.372;2023-05-07T06:56:22;15.20;99.90
8099;DHT22;4092;47.876;9.372;2023-05-07T06:58:50;15.30;99.90
8099;DHT22;4092;47.876;9.372;2023-05-07T07:01:17;15.40;99.90
8099;DHT22;4092;47.876;9.372;2023-05-07T07:03:43;15.40;99.90
8099;DHT22;4092;47.876;9.372;2023-05-07T07:06:12;15.40;99.90
8099;DHT22;4092;47.876;9.372;2023-05-07T07:08:39;15.40;99.90
8099;DHT22;4092;47.876;9.372;2023-05-07T07:11:08;15.40;99.90
8099;DHT22;4092;47.876;9.372;2023-05-07T07:13:35;15.40;99.90
8099;DHT22;4092;47.876;9.372;2023-05-07T07:16:02;15.40;99.90
8099;DHT22;4092;47.876;9.372;2023-05-07T07:18:29;15.40;99.90
8099;DHT22;4092;47.876;9.372;2023-05-07T07:20:56;15.40;99.90
8099;DHT22;4092;47.876;9.372;2023-05-07T07:23:24;15.50;99.90
8099;DHT22;4092;47.876;9.372;2023-05-07T07:25:51;15.50;99.90
8099;DHT22;4092;47.876;9.372;2023-05-07T07:28:21;15.60;99.90
8099;DHT22;4092;47.876;9.372;2023-05-07T07:30:48;15.80;99.90
8099;DHT22;4092;47.876;9.372;2023-05-07T07:33:15;15.80;99.90
8099;DHT22;4092;47.876;9.372;2023-05-07T07:35:42;15.90;99.90
8099;DHT22;4092;47.876;9.372;2023-05-07T07:38:09;16.00;99.90
8099;DHT22;4092;47.876;9.372;2023-05-07T07:40:38;16.20;99.90
8099;DHT22;4092;47.876;9.372;2023-05-07T07:43:05;16.30;99.90
8099;DHT22;4092;47.876;9.372;2023-05-07T07:45:32;16.50;99.90
8099;DHT22;4092;47.876;9.372;2023-05-07T07:47:59;16.50;99.90
8099;DHT22;4092;47.876;9.372;2023-05-07T07:50:26;16.60;99.90
8099;DHT22;4092;47.876;9.372;2023-05-07T07:52:53;16.60;99.90
8099;DHT22;4092;47.876;9.372;2023-05-07T07:55:23;16.70;99.90
8099;DHT22;4092;47.876;9.372;2023-05-07T07:57:53;16.80;99.90
8099;DHT22;4092;47.876;9.372;2023-05-07T08:00:23;16.80;99.90
8099;DHT22;4092;47.876;9.372;2023-05-07T08:02:50;16.80;99.90
8099;DHT22;4092;47.876;9.372;2023-05-07T08:05:17;17.00;99.90
8099;DHT22;4092;47.876;9.372;2023-05-07T08:07:44;17.00;99.90
8099;DHT22;4092;47.876;9.372;2023-05-07T08:10:12;17.20;99.90
8099;DHT22;4092;47.876;9.372;2023-05-07T08:12:46;17.30;99.90
8099;DHT22;4092;47.876;9.372;2023-05-07T08:15:15;17.40;99.90
8099;DHT22;4092;47.876;9.372;2023-05-07T08:17:42;17.50;99.90
8099;DHT22;4092;47.876;9.372;2023-05-07T08:20:10;17.70;99.90
8099;DHT22;4092;47.876;9.372;2023-05-07T08:22:37;17.70;99.90
8099;DHT22;4092;47.876;9.372;2023-05-07T08:25:07;17.80;99.90
8099;DHT22;4092;47.876;9.372;2023-05-07T08:27:34;17.80;99.90
8099;DHT22;4092;47.876;9.372;2023-05-07T08:30:02;18.00;99.90
8099;DHT22;4092;47.876;9.372;2023-05-07T08:32:30;18.00;99.90
8099;DHT22;4092;47.876;9.372;2023-05-07T08:34:57;18.10;99.90
8099;DHT22;4092;47.876;9.372;2023-05-07T08:37:25;18.20;99.90
8099;DHT22;4092;47.876;9.372;2023-05-07T08:39:52;18.20;99.90
8099;DHT22;4092;47.876;9.372;2023-05-07T08:42:19;18.30;99.90
8099;DHT22;4092;47.876;9.372;2023-05-07T08:44:48;18.40;99.90
8099;DHT22;4092;47.876;9.372;2023-05-07T08:47:19;18.40;99.90
8099;DHT22;4092;47.876;9.372;2023-05-07T08:49:51;18.50;99.90
8099;DHT22;4092;47.876;9.372;2023-05-07T08:52:18;18.30;99.90
8099;DHT22;4092;47.876;9.372;2023-05-07T08:54:46;18.30;99.90
8099;DHT22;4092;47.876;9.372;2023-05-07T08:57:13;18.40;99.90
8099;DHT22;4092;47.876;9.372;2023-05-07T08:59:40;18.40;99.90
8099;DHT22;4092;47.876;9.372;2023-05-07T09:02:09;18.60;99.90
8099;DHT22;4092;47.876;9.372;2023-05-07T09:04:37;18.80;99.90
8099;DHT22;4092;47.876;9.372;2023-05-07T09:07:05;19.00;99.90
8099;DHT22;4092;47.876;9.372;2023-05-07T09:09:33;19.20;99.90
8099;DHT22;4092;47.876;9.372;2023-05-07T09:12:00;19.40;99.90
8099;DHT22;4092;47.876;9.372;2023-05-07T09:14:27;19.40;99.90
8099;DHT22;4092;47.876;9.372;2023-05-07T09:16:59;19.60;99.90
8099;DHT22;4092;47.876;9.372;2023-05-07T09:19:27;19.70;99.90
8099;DHT22;4092;47.876;9.372;2023-05-07T09:21:59;19.80;99.90
8099;DHT22;4092;47.876;9.372;2023-05-07T09:24:40;19.80;99.90
8099;DHT22;4092;47.876;9.372;2023-05-07T09:27:07;19.80;99.90
8099;DHT22;4092;47.876;9.372;2023-05-07T09:29:38;20.00;99.90
8099;DHT22;4092;47.876;9.372;2023-05-07T09:32:06;19.70;99.90
8099;DHT22;4092;47.876;9.372;2023-05-07T09:34:34;19.80;99.90
8099;DHT22;4092;47.876;9.372;2023-05-07T09:37:02;19.90;99.90
8099;DHT22;4092;47.876;9.372;2023-05-07T09:39:40;19.60;99.90
8099;DHT22;4092;47.876;9.372;2023-05-07T09:42:07;19.30;99.90
8099;DHT22;4092;47.876;9.372;2023-05-07T09:44:35;19.30;99.90
8099;DHT22;4092;47.876;9.372;2023-05-07T09:47:06;19.50;99.90
8099;DHT22;4092;47.876;9.372;2023-05-07T09:49:38;19.70;99.90
8099;DHT22;4092;47.876;9.372;2023-05-07T09:52:08;19.60;99.90
8099;DHT22;4092;47.876;9.372;2023-05-07T09:54:40;19.50;99.90
8099;DHT22;4092;47.876;9.372;2023-05-07T09:57:10;19.50;99.90
8099;DHT22;4092;47.876;9.372;2023-05-07T09:59:38;19.50;99.90
8099;DHT22;4092;47.876;9.372;2023-05-07T10:02:07;19.60;99.90
8099;DHT22;4092;47.876;9.372;2023-05-07T10:04:38;19.60;99.90
8099;DHT22;4092;47.876;9.372;2023-05-07T10:07:13;19.60;99.90
8099;DHT22;4092;47.876;9.372;2023-05-07T10:09:43;19.90;99.90
8099;DHT22;4092;47.876;9.372;2023-05-07T10:12:12;20.00;99.90
8099;DHT22;4092;47.876;9.372;2023-05-07T10:14:39;20.00;99.90
8099;DHT22;4092;47.876;9.372;2023-05-07T10:17:07;19.90;99.90
8099;DHT22;4092;47.876;9.372;2023-05-07T10:19:36;19.80;99.90
8099;DHT22;4092;47.876;9.372;2023-05-07T10:22:05;19.80;99.90
8099;DHT22;4092;47.876;9.372;2023-05-07T10:24:34;19.70;99.90
8099;DHT22;4092;47.876;9.372;2023-05-07T10:27:08;19.70;99.90
8099;DHT22;4092;47.876;9.372;2023-05-07T10:29:42;19.80;99.90
8099;DHT22;4092;47.876;9.372;2023-05-07T10:32:24;20.10;99.90
8099;DHT22;4092;47.876;9.372;2023-05-07T10:34:54;20.10;99.90
8099;DHT22;4092;47.876;9.372;2023-05-07T10:37:24;20.20;99.90
8099;DHT22;4092;47.876;9.372;2023-05-07T10:39:52;20.40;99.90
8099;DHT22;4092;47.876;9.372;2023-05-07T10:42:20;20.40;99.90
8099;DHT22;4092;47.876;9.372;2023-05-07T10:44:50;20.30;99.90
8099;DHT22;4092;47.876;9.372;2023-05-07T10:47:25;20.40;99.90
8099;DHT22;4092;47.876;9.372;2023-05-07T10:50:20;20.60;99.90
8099;DHT22;4092;47.876;9.372;2023-05-07T10:53:23;20.70;99.90
8099;DHT22;4092;47.876;9.372;2023-05-07T10:56:28;20.80;99.90
8099;DHT22;4092;47.876;9.372;2023-05-07T11:01:52;20.90;99.90
8099;DHT22;4092;47.876;9.372;2023-05-07T11:04:19;20.90;99.90
8099;DHT22;4092;47.876;9.372;2023-05-07T11:07:23;21.00;99.90
8099;DHT22;4092;47.876;9.372;2023-05-07T11:10:08;21.10;99.90
8099;DHT22;4092;47.876;9.372;2023-05-07T11:12:54;21.20;99.90
8099;DHT22;4092;47.876;9.372;2023-05-07T11:15:37;21.40;99.90
8099;DHT22;4092;47.876;9.372;2023-05-07T11:18:04;21.30;99.90
8099;DHT22;4092;47.876;9.372;2023-05-07T11:20:49;21.20;99.90
8099;DHT22;4092;47.876;9.372;2023-05-07T11:26:17;21.30;99.90
8099;DHT22;4092;47.876;9.372;2023-05-07T11:28:44;21.50;99.90
8099;DHT22;4092;47.876;9.372;2023-05-07T11:31:12;21.30;99.90
8099;DHT22;4092;47.876;9.372;2023-05-07T11:33:40;21.50;99.90
8099;DHT22;4092;47.876;9.372;2023-05-07T11:36:08;21.70;99.90
8099;DHT22;4092;47.876;9.372;2023-05-07T11:38:38;22.00;99.90
8099;DHT22;4092;47.876;9.372;2023-05-07T11:41:05;22.20;99.90
8099;DHT22;4092;47.876;9.372;2023-05-07T11:43:32;22.00;99.90
8099;DHT22;4092;47.876;9.372;2023-05-07T11:46:09;22.00;99.90
8099;DHT22;4092;47.876;9.372;2023-05-07T11:48:38;21.90;99.90
8099;DHT22;4092;47.876;9.372;2023-05-07T11:51:07;21.90;99.90
8099;DHT22;4092;47.876;9.372;2023-05-07T11:53:39;22.10;99.90
8099;DHT22;4092;47.876;9.372;2023-05-07T11:56:07;22.20;99.90
8099;DHT22;4092;47.876;9.372;2023-05-07T11:58:34;22.30;99.90
8099;DHT22;4092;47.876;9.372;2023-05-07T12:01:01;22.20;99.90
8099;DHT22;4092;47.876;9.372;2023-05-07T12:03:28;22.30;99.90
8099;DHT22;4092;47.876;9.372;2023-05-07T12:05:56;22.30;99.90
8099;DHT22;4092;47.876;9.372;2023-05-07T12:08:23;22.20;99.90
8099;DHT22;4092;47.876;9.372;2023-05-07T12:10:50;22.30;99.90
8099;DHT22;4092;47.876;9.372;2023-05-07T12:13:18;22.70;99.90
8099;DHT22;4092;47.876;9.372;2023-05-07T12:15:45;23.10;99.90
8099;DHT22;4092;47.876;9.372;2023-05-07T12:18:13;23.30;99.90
8099;DHT22;4092;47.876;9.372;2023-05-07T12:20:43;23.40;99.90
8099;DHT22;4092;47.876;9.372;2023-05-07T12:23:13;23.50;99.90
8099;DHT22;4092;47.876;9.372;2023-05-07T12:25:41;23.50;99.90
8099;DHT22;4092;47.876;9.372;2023-05-07T12:28:13;23.70;99.90
8099;DHT22;4092;47.876;9.372;2023-05-07T12:30:40;23.90;99.90
8099;DHT22;4092;47.876;9.372;2023-05-07T12:33:07;24.10;99.90
8099;DHT22;4092;47.876;9.372;2023-05-07T12:35:40;23.90;99.90
8099;DHT22;4092;47.876;9.372;2023-05-07T12:38:08;23.80;99.90
8099;DHT22;4092;47.876;9.372;2023-05-07T12:40:39;23.90;99.90
8099;DHT22;4092;47.876;9.372;2023-05-07T12:43:06;24.10;99.90
8099;DHT22;4092;47.876;9.372;2023-05-07T12:45:37;24.00;99.90
8099;DHT22;4092;47.876;9.372;2023-05-07T12:48:05;24.00;99.90
8099;DHT22;4092;47.876;9.372;2023-05-07T12:50:35;24.20;99.90
8099;DHT22;4092;47.876;9.372;2023-05-07T12:53:05;24.30;99.90
8099;DHT22;4092;47.876;9.372;2023-05-07T12:55:45;24.60;99.90
8099;DHT22;4092;47.876;9.372;2023-05-07T12:58:16;24.60;99.90
8099;DHT22;4092;47.876;9.372;2023-05-07T13:00:44;24.50;99.90
8099;DHT22;4092;47.876;9.372;2023-05-07T13:03:11;24.60;99.90
8099;DHT22;4092;47.876;9.372;2023-05-07T13:05:39;24.70;99.90
8099;DHT22;4092;47.876;9.372;2023-05-07T13:08:09;24.60;99.90
8099;DHT22;4092;47.876;9.372;2023-05-07T13:10:36;24.40;99.90
8099;DHT22;4092;47.876;9.372;2023-05-07T13:13:04;24.70;99.90
8099;DHT22;4092;47.876;9.372;2023-05-07T13:15:32;24.70;99.90
8099;DHT22;4092;47.876;9.372;2023-05-07T13:17:59;24.80;99.90
8099;DHT22;4092;47.876;9.372;2023-05-07T13:20:26;24.40;99.90
8099;DHT22;4092;47.876;9.372;2023-05-07T13:22:53;24.00;99.90
8099;DHT22;4092;47.876;9.372;2023-05-07T13:25:20;23.60;99.90
8099;DHT22;4092;47.876;9.372;2023-05-07T13:27:47;23.50;99.90
8099;DHT22;4092;47.876;9.372;2023-05-07T13:30:16;23.30;99.90
8099;DHT22;4092;47.876;9.372;2023-05-07T13:32:43;23.30;99.90
8099;DHT22;4092;47.876;9.372;2023-05-07T13:35:11;23.20;99.90
8099;DHT22;4092;47.876;9.372;2023-05-07T13:37:38;23.20;99.90
8099;DHT22;4092;47.876;9.372;2023-05-07T13:40:06;23.10;99.90
8099;DHT22;4092;47.876;9.372;2023-05-07T13:42:33;23.30;99.90
8099;DHT22;4092;47.876;9.372;2023-05-07T13:45:00;23.50;99.90
8099;DHT22;4092;47.876;9.372;2023-05-07T13:47:32;23.50;99.90
8099;DHT22;4092;47.876;9.372;2023-05-07T13:49:58;23.50;99.90
8099;DHT22;4092;47.876;9.372;2023-05-07T13:52:26;23.50;99.90
8099;DHT22;4092;47.876;9.372;2023-05-07T13:54:53;23.50;99.90
8099;DHT22;4092;47.876;9.372;2023-05-07T13:57:20;23.40;99.90
8099;DHT22;4092;47.876;9.372;2023-05-07T13:59:47;23.40;99.90
8099;DHT22;4092;47.876;9.372;2023-05-07T14:02:14;23.30;99.90
8099;DHT22;4092;47.876;9.372;2023-05-07T14:04:43;23.40;99.90
8099;DHT22;4092;47.876;9.372;2023-05-07T14:07:10;23.30;99.90
8099;DHT22;4092;47.876;9.372;2023-05-07T14:09:37;22.90;99.90
8099;DHT22;4092;47.876;9.372;2023-05-07T14:12:05;22.20;99.90
8099;DHT22;4092;47.876;9.372;2023-05-07T14:14:32;21.90;99.90
8099;DHT22;4092;47.876;9.372;2023-05-07T14:16:59;21.70;99.90
8099;DHT22;4092;47.876;9.372;2023-05-07T14:19:27;21.80;99.90
8099;DHT22;4092;47.876;9.372;2023-05-07T14:21:55;22.00;99.90
8099;DHT22;4092;47.876;9.372;2023-05-07T14:24:25;22.10;99.90
8099;DHT22;4092;47.876;9.372;2023-05-07T14:26:52;22.70;99.90
8099;DHT22;4092;47.876;9.372;2023-05-07T14:29:19;23.20;99.90
8099;DHT22;4092;47.876;9.372;2023-05-07T14:31:49;23.20;99.90
8099;DHT22;4092;47.876;9.372;2023-05-07T14:34:16;23.00;99.90
8099;DHT22;4092;47.876;9.372;2023-05-07T14:36:44;22.60;99.90
8099;DHT22;4092;47.876;9.372;2023-05-07T14:39:13;22.10;99.90
8099;DHT22;4092;47.876;9.372;2023-05-07T14:41:43;21.60;99.90
8099;DHT22;4092;47.876;9.372;2023-05-07T14:44:12;21.20;99.90
8099;DHT22;4092;47.876;9.372;2023-05-07T14:46:39;20.90;99.90
8099;DHT22;4092;47.876;9.372;2023-05-07T14:49:08;20.50;99.90
8099;DHT22;4092;47.876;9.372;2023-05-07T14:51:42;20.20;99.90
8099;DHT22;4092;47.876;9.372;2023-05-07T14:54:13;20.00;99.90
8099;DHT22;4092;47.876;9.372;2023-05-07T14:56:41;19.80;99.90
8099;DHT22;4092;47.876;9.372;2023-05-07T14:59:18;19.70;99.90
8099;DHT22;4092;47.876;9.372;2023-05-07T15:01:50;19.60;99.90
8099;DHT22;4092;47.876;9.372;2023-05-07T15:04:20;19.50;99.90
8099;DHT22;4092;47.876;9.372;2023-05-07T15:06:50;19.50;99.90
8099;DHT22;4092;47.876;9.372;2023-05-07T15:09:20;19.50;99.90
8099;DHT22;4092;47.876;9.372;2023-05-07T15:11:47;19.40;99.90
8099;DHT22;4092;47.876;9.372;2023-05-07T15:14:15;19.40;99.90
8099;DHT22;4092;47.876;9.372;2023-05-07T15:16:42;19.50;99.90
8099;DHT22;4092;47.876;9.372;2023-05-07T15:19:09;19.40;99.90
8099;DHT22;4092;47.876;9.372;2023-05-07T15:21:39;19.40;99.90
8099;DHT22;4092;47.876;9.372;2023-05-07T15:24:07;19.40;99.90
8099;DHT22;4092;47.876;9.372;2023-05-07T15:26:36;19.40;99.90
8099;DHT22;4092;47.876;9.372;2023-05-07T15:29:03;19.40;99.90
8099;DHT22;4092;47.876;9.372;2023-05-07T15:31:35;19.40;99.90
8099;DHT22;4092;47.876;9.372;2023-05-07T15:34:04;19.40;99.90
8099;DHT22;4092;47.876;9.372;2023-05-07T15:36:31;19.40;99.90
8099;DHT22;4092;47.876;9.372;2023-05-07T15:39:01;19.40;99.90
8099;DHT22;4092;47.876;9.372;2023-05-07T15:41:30;19.40;99.90
8099;DHT22;4092;47.876;9.372;2023-05-07T15:43:58;19.30;99.90
8099;DHT22;4092;47.876;9.372;2023-05-07T15:46:25;19.20;99.90
8099;DHT22;4092;47.876;9.372;2023-05-07T15:48:53;19.30;99.90
8099;DHT22;4092;47.876;9.372;2023-05-07T15:51:23;19.40;99.90
8099;DHT22;4092;47.876;9.372;2023-05-07T15:53:50;19.40;99.90
8099;DHT22;4092;47.876;9.372;2023-05-07T15:56:20;19.40;99.90
8099;DHT22;4092;47.876;9.372;2023-05-07T15:58:49;19.30;99.90
8099;DHT22;4092;47.876;9.372;2023-05-07T16:01:19;19.20;99.90
8099;DHT22;4092;47.876;9.372;2023-05-07T16:03:49;19.30;99.90
8099;DHT22;4092;47.876;9.372;2023-05-07T16:06:18;19.20;99.90
8099;DHT22;4092;47.876;9.372;2023-05-07T16:08:45;19.30;99.90
8099;DHT22;4092;47.876;9.372;2023-05-07T16:11:12;19.20;99.90
8099;DHT22;4092;47.876;9.372;2023-05-07T16:13:39;19.20;99.90
8099;DHT22;4092;47.876;9.372;2023-05-07T16:16:06;19.10;99.90
8099;DHT22;4092;47.876;9.372;2023-05-07T16:18:35;19.20;99.90